Terminal Aerodrome Forecast
Issued by NWS Duluth, MN

Current Version | Previous Version | Text Only | Print | Product List | Glossary On
Versions: 1 2 3 4 5 6 7 8 9 10 11 12 13 14 15 16 17 18 19 20 21 22 23 24 25 26
000
FTUS43 KDLH 212000 AAB
TAFINL
TAF AMD
KINL 212015Z 2120/2218 11009KT P6SM VCSH BKN025 OVC035
      TEMPO 2121/2201 6SM -TSRA SCT015CB OVC025
     FM220100 14006KT P6SM BKN015
     FM220700 VRB02KT 2SM BR OVC006
     FM221500 01003KT 5SM BR OVC008=

USA.gov is the U.S. government's official web portal to all federal, state and local government web resources and services.